Time;durP1;ratioP1;P1;durP2;ratioP2;P2;SDS_P1;SDS_P2;PMS_P1;PMS_P2;Temp;Humidity;BMP_temperature;BMP_pressure;BME280_temperature;BME280_humidity;BME280_pressure;Samples;Min_cycle;Max_cycle;Signal;HPM_P1;HPM_P2
2021/01/01 00:00:28;;;;;;;39.23;31.90;;;;;;;4.65;100.00;99549.78;4922456;29;20438;-77
2021/01/01 00:03:15;;;;;;;34.57;29.77;;;;;;;4.58;100.00;99545.88;4940602;29;20428;-77
2021/01/01 00:06:01;;;;;;;38.70;31.43;;;;;;;4.59;100.00;99545.78;4939346;29;20465;-78
2021/01/01 00:08:48;;;;;;;45.70;35.53;;;;;;;4.63;100.00;99549.84;4940061;29;20430;-77
2021/01/01 00:11:34;;;;;;;47.73;35.00;;;;;;;4.55;100.00;99541.72;4939629;29;20462;-77
2021/01/01 00:14:22;;;;;;;265.03;170.70;;;;;;;4.47;100.00;99549.81;4940808;29;20426;-77
2021/01/01 00:17:08;;;;;;;62.23;48.57;;;;;;;4.43;100.00;99544.94;4938721;29;20447;-77
2021/01/01 00:19:55;;;;;;;57.00;41.43;;;;;;;4.42;100.00;99549.25;4938595;29;20430;-77
2021/01/01 00:22:42;;;;;;;46.67;35.43;;;;;;;4.53;100.00;99553.81;4940029;29;20826;-77
2021/01/01 00:25:29;;;;;;;45.77;33.00;;;;;;;4.60;100.00;99554.31;4938295;29;20834;-77
2021/01/01 00:28:15;;;;;;;46.33;37.37;;;;;;;4.59;100.00;99557.81;4939684;29;20430;-77
2021/01/01 00:31:03;;;;;;;54.60;41.97;;;;;;;4.58;100.00;99551.84;4937943;29;20458;-76
2021/01/01 00:33:50;;;;;;;51.80;41.03;;;;;;;4.58;100.00;99562.13;4939093;29;20445;-77
2021/01/01 00:36:37;;;;;;;53.27;43.23;;;;;;;4.50;100.00;99554.81;4938185;29;20490;-77
2021/01/01 00:39:23;;;;;;;52.10;43.60;;;;;;;4.45;100.00;99561.13;4938731;29;20430;-77
2021/01/01 00:42:10;;;;;;;58.67;45.23;;;;;;;4.48;100.00;99558.38;4941533;29;20462;-76
2021/01/01 00:44:56;;;;;;;62.33;47.80;;;;;;;4.47;100.00;99560.09;4938911;29;20457;-76
2021/01/01 00:47:47;;;;;;;50.83;41.77;;;;;;;4.55;100.00;99562.28;4939641;29;20437;-77
2021/01/01 00:50:34;;;;;;;55.20;41.80;;;;;;;4.65;100.00;99563.44;4939336;29;20513;-79
2021/01/01 00:53:21;;;;;;;60.17;42.30;;;;;;;4.55;100.00;99567.41;4939274;29;20437;-76
2021/01/01 00:56:07;;;;;;;62.20;42.87;;;;;;;4.46;100.00;99568.75;4937686;29;20497;-77
2021/01/01 00:58:55;;;;;;;68.67;48.50;;;;;;;4.44;100.00;99565.41;4938900;29;20426;-77
2021/01/01 01:01:42;;;;;;;54.93;41.37;;;;;;;4.50;100.00;99569.41;4940303;29;20454;-77
2021/01/01 01:04:29;;;;;;;62.80;44.03;;;;;;;4.58;100.00;99572.41;4937937;29;20466;-77
2021/01/01 01:07:16;;;;;;;58.60;43.13;;;;;;;4.58;100.00;99572.41;4940306;29;20856;-77
2021/01/01 01:10:03;;;;;;;54.67;41.37;;;;;;;4.56;100.00;99571.66;4939299;29;20433;-77
2021/01/01 01:12:50;;;;;;;57.57;43.03;;;;;;;4.56;100.00;99575.94;4938827;29;20820;-77
2021/01/01 01:15:36;;;;;;;51.00;41.73;;;;;;;4.53;100.00;99571.00;4938045;29;20422;-77
2021/01/01 01:18:23;;;;;;;58.20;41.80;;;;;;;4.50;100.00;99582.25;4938950;29;20889;-77
2021/01/01 01:21:10;;;;;;;57.20;43.30;;;;;;;4.51;100.00;99574.47;4939165;29;20454;-77
2021/01/01 01:23:57;;;;;;;63.80;47.50;;;;;;;4.49;100.00;99583.16;4938059;29;20430;-77
2021/01/01 01:26:43;;;;;;;70.17;48.57;;;;;;;4.53;100.00;99581.25;4937255;29;20446;-77
2021/01/01 01:29:29;;;;;;;65.63;44.80;;;;;;;4.44;100.00;99583.41;4938810;29;20434;-77
2021/01/01 01:32:16;;;;;;;69.40;48.53;;;;;;;4.43;100.00;99589.44;4937343;29;20544;-77
2021/01/01 01:35:03;;;;;;;62.53;45.17;;;;;;;4.56;100.00;99593.94;4939070;29;20423;-77
2021/01/01 01:37:50;;;;;;;58.40;42.53;;;;;;;4.50;100.00;99590.78;4938656;29;20452;-77
2021/01/01 01:40:37;;;;;;;60.47;42.23;;;;;;;4.53;100.00;99594.91;4938778;29;20426;-77
2021/01/01 01:43:25;;;;;;;54.23;39.67;;;;;;;4.43;100.00;99601.44;4938882;29;20437;-77
2021/01/01 01:46:11;;;;;;;51.57;38.37;;;;;;;4.34;100.00;99600.22;4938832;29;20470;-78
2021/01/01 01:48:58;;;;;;;61.37;42.63;;;;;;;4.24;100.00;99611.84;4935760;29;21091;-76
2021/01/01 01:51:47;;;;;;;48.57;36.10;;;;;;;4.33;100.00;99600.28;4936632;29;20453;-77
2021/01/01 01:54:35;;;;;;;51.33;36.27;;;;;;;4.36;100.00;99608.63;4935798;29;20481;-76
2021/01/01 01:57:24;;;;;;;50.40;35.57;;;;;;;4.41;100.00;99610.97;4936557;29;21025;-76
2021/01/01 02:00:34;;;;;;;50.30;36.40;;;;;;;4.45;100.00;99613.31;4935605;29;20799;-77
2021/01/01 02:03:21;;;;;;;52.50;37.67;;;;;;;4.33;100.00;99607.97;4934377;29;20429;-77
2021/01/01 02:06:08;;;;;;;80.67;53.77;;;;;;;4.33;100.00;99618.25;4936938;29;20472;-76
2021/01/01 02:08:55;;;;;;;61.17;43.07;;;;;;;4.30;100.00;99613.25;4945188;29;20815;-77
2021/01/01 02:11:46;;;;;;;54.40;38.07;;;;;;;4.32;100.00;99612.28;4939196;29;20468;-76
2021/01/01 02:14:33;;;;;;;49.20;35.43;;;;;;;4.27;100.00;99621.97;4935322;29;20477;-77
2021/01/01 02:17:20;;;;;;;49.90;34.83;;;;;;;4.28;100.00;99620.22;4934997;29;20434;-76
2021/01/01 02:20:08;;;;;;;51.00;36.37;;;;;;;4.20;100.00;99624.91;4934891;29;20422;-76
2021/01/01 02:22:55;;;;;;;50.73;35.33;;;;;;;4.17;100.00;99628.47;4933490;29;20442;-76
2021/01/01 02:25:42;;;;;;;50.10;34.17;;;;;;;4.14;100.00;99635.50;4934340;29;20538;-76
2021/01/01 02:28:29;;;;;;;45.57;32.53;;;;;;;4.17;100.00;99632.78;4934370;29;20426;-77
2021/01/01 02:31:15;;;;;;;50.97;34.00;;;;;;;4.20;100.00;99632.63;4933965;29;20457;-77
2021/01/01 02:34:02;;;;;;;47.83;33.80;;;;;;;4.23;100.00;99635.84;4933308;29;20954;-79
2021/01/01 02:36:48;;;;;;;47.80;33.13;;;;;;;4.21;100.00;99639.44;4934341;29;20477;-77
2021/01/01 02:39:37;;;;;;;47.13;32.90;;;;;;;4.23;100.00;99647.88;4935373;28;20456;-77
2021/01/01 02:42:24;;;;;;;46.07;32.33;;;;;;;4.28;100.00;99648.47;4934352;29;20823;-77
2021/01/01 02:45:11;;;;;;;50.23;34.63;;;;;;;4.27;100.00;99647.66;4936975;29;20464;-76
2021/01/01 02:48:08;;;;;;;48.40;33.67;;;;;;;4.24;100.00;99654.66;4943788;29;20442;-77
2021/01/01 02:50:55;;;;;;;47.67;32.33;;;;;;;4.28;100.00;99653.63;4915856;29;20462;-76
2021/01/01 02:53:41;;;;;;;47.57;32.10;;;;;;;4.28;100.00;99651.03;4935233;29;20958;-76
2021/01/01 02:56:29;;;;;;;44.70;31.73;;;;;;;4.26;100.00;99653.69;4934830;29;20477;-76
2021/01/01 02:59:15;;;;;;;47.93;33.27;;;;;;;4.34;100.00;99661.84;4942260;29;20429;-77
2021/01/01 03:02:02;;;;;;;45.03;31.87;;;;;;;4.35;100.00;99655.78;4944281;28;21081;-77
2021/01/01 03:04:48;;;;;;;48.23;31.77;;;;;;;4.40;100.00;99648.69;4953069;29;20457;-75
2021/01/01 03:07:34;;;;;;;50.60;32.60;;;;;;;4.37;100.00;99653.97;4954578;29;20429;-77
2021/01/01 03:10:21;;;;;;;44.97;32.33;;;;;;;4.35;100.00;99660.91;4952181;29;20426;-77
2021/01/01 03:13:08;;;;;;;45.60;32.07;;;;;;;4.33;100.00;99660.19;4944853;29;20807;-77
2021/01/01 03:15:55;;;;;;;48.83;33.30;;;;;;;4.48;100.00;99661.13;4933317;29;20433;-77
2021/01/01 03:18:42;;;;;;;54.10;34.77;;;;;;;4.46;100.00;99655.25;4934715;29;20819;-76
2021/01/01 03:21:28;;;;;;;52.83;33.37;;;;;;;4.38;100.00;99658.19;4933369;29;20457;-77
2021/01/01 03:24:14;;;;;;;55.57;34.23;;;;;;;4.41;100.00;99663.16;4933902;29;20426;-77
2021/01/01 03:27:01;;;;;;;58.43;37.77;;;;;;;4.44;100.00;99663.03;4934614;29;20639;-76
2021/01/01 03:29:48;;;;;;;61.73;38.23;;;;;;;4.38;100.00;99663.34;4935150;29;20430;-77
2021/01/01 03:32:35;;;;;;;53.90;37.37;;;;;;;4.37;100.00;99659.09;4933629;29;20468;-76
2021/01/01 03:35:22;;;;;;;52.60;35.20;;;;;;;4.38;100.00;99659.94;4931912;29;20485;-76
2021/01/01 03:38:08;;;;;;;54.80;35.43;;;;;;;4.43;100.00;99660.53;4934341;29;20866;-76
2021/01/01 03:40:55;;;;;;;54.60;36.33;;;;;;;4.38;100.00;99667.63;4933317;29;20449;-77
2021/01/01 03:43:41;;;;;;;58.73;36.43;;;;;;;4.38;100.00;99663.34;4933729;29;20859;-76
2021/01/01 03:46:29;;;;;;;60.33;36.40;;;;;;;4.32;100.00;99665.38;4932198;29;20458;-76
2021/01/01 03:49:15;;;;;;;64.13;37.97;;;;;;;4.39;100.00;99665.00;4933138;29;20437;-77
2021/01/01 03:52:02;;;;;;;60.70;38.57;;;;;;;4.39;100.00;99666.75;4933446;29;20469;-76
2021/01/01 03:54:48;;;;;;;65.73;38.57;;;;;;;4.34;100.00;99676.41;4932128;29;20426;-76
2021/01/01 03:57:35;;;;;;;58.17;37.37;;;;;;;4.37;100.00;99674.50;4933621;29;20437;-77
2021/01/01 04:00:22;;;;;;;59.70;38.57;;;;;;;4.35;100.00;99680.66;4934761;29;20450;-76
2021/01/01 04:03:10;;;;;;;66.63;38.03;;;;;;;4.37;100.00;99679.66;4937181;29;20426;-77
2021/01/01 04:05:56;;;;;;;63.30;38.77;;;;;;;4.38;100.00;99678.75;4937501;29;20483;-77
2021/01/01 04:08:43;;;;;;;61.40;38.40;;;;;;;4.44;100.00;99681.00;4937001;29;20426;-75
2021/01/01 04:11:34;;;;;;;67.07;39.10;;;;;;;4.56;100.00;99683.84;4938410;29;20509;-76
2021/01/01 04:14:20;;;;;;;58.43;36.43;;;;;;;4.52;100.00;99680.63;4937819;29;20422;-77
2021/01/01 04:17:07;;;;;;;63.33;36.50;;;;;;;4.52;100.00;99683.19;4936412;29;20526;-77
2021/01/01 04:19:54;;;;;;;58.70;36.60;;;;;;;4.56;100.00;99682.13;4937440;29;20448;-76
2021/01/01 04:22:41;;;;;;;60.20;38.73;;;;;;;4.57;100.00;99682.94;4938217;29;20501;-79
2021/01/01 04:25:27;;;;;;;60.37;37.70;;;;;;;4.49;100.00;99675.63;4938203;29;20474;-77
2021/01/01 04:28:14;;;;;;;60.33;38.37;;;;;;;4.45;100.00;99679.25;4939847;29;20446;-77
2021/01/01 04:31:01;;;;;;;59.83;38.70;;;;;;;4.42;100.00;99680.25;4938140;29;20795;-77
2021/01/01 04:33:47;;;;;;;59.27;38.00;;;;;;;4.41;100.00;99686.28;4939257;29;20449;-77
2021/01/01 04:36:35;;;;;;;55.03;36.20;;;;;;;4.49;100.00;99680.75;4937481;29;20433;-77
2021/01/01 04:39:22;;;;;;;57.07;35.83;;;;;;;4.51;100.00;99679.78;4944605;29;20550;-76
2021/01/01 04:42:09;;;;;;;60.73;38.80;;;;;;;4.41;100.00;99680.31;4937643;29;20438;-76
2021/01/01 04:44:56;;;;;;;55.10;34.77;;;;;;;4.44;100.00;99688.72;4936768;29;20461;-77
2021/01/01 04:47:45;;;;;;;57.50;37.00;;;;;;;4.40;100.00;99689.78;4936881;29;20806;-77
2021/01/01 04:50:32;;;;;;;55.93;36.17;;;;;;;4.31;100.00;99690.22;4940459;29;20788;-77
2021/01/01 04:53:21;;;;;;;62.90;38.00;;;;;;;4.32;100.00;99704.75;4938601;29;20452;-77
2021/01/01 04:56:08;;;;;;;54.87;34.77;;;;;;;4.32;100.00;99691.91;4917577;29;20800;-77
2021/01/01 04:58:56;;;;;;;54.30;35.27;;;;;;;4.33;100.00;99698.69;4923392;29;20462;-76
2021/01/01 05:01:43;;;;;;;59.50;37.53;;;;;;;4.34;100.00;99699.53;4937612;29;20457;-77
2021/01/01 05:04:29;;;;;;;58.90;35.00;;;;;;;4.34;100.00;99702.94;4935803;29;20795;-76
2021/01/01 05:07:17;;;;;;;55.00;35.60;;;;;;;4.28;100.00;99703.25;4935517;29;20461;-77
2021/01/01 05:10:05;;;;;;;60.90;36.87;;;;;;;4.33;100.00;99706.41;4954508;29;20463;-77
2021/01/01 05:12:51;;;;;;;60.93;36.60;;;;;;;4.26;100.00;99709.34;4947551;28;20477;-77
2021/01/01 05:15:39;;;;;;;62.03;38.53;;;;;;;4.18;100.00;99704.59;4939621;29;20756;-77
2021/01/01 05:18:26;;;;;;;54.03;36.30;;;;;;;4.22;100.00;99713.81;4935981;29;20457;-76
2021/01/01 05:21:21;;;;;;;55.97;36.73;;;;;;;4.23;100.00;99707.75;4935533;29;20462;-77
2021/01/01 05:24:14;;;;;;;54.97;34.63;;;;;;;4.33;100.00;99714.09;4933703;29;20946;-76
2021/01/01 05:27:10;;;;;;;51.40;36.30;;;;;;;4.18;100.00;99707.16;4935640;29;20802;-77
2021/01/01 05:29:57;;;;;;;58.57;37.10;;;;;;;4.19;100.00;99719.09;4936169;29;20437;-77
2021/01/01 05:32:51;;;;;;;59.73;36.60;;;;;;;4.22;100.00;99720.69;4937938;29;20446;-77
2021/01/01 05:35:38;;;;;;;54.30;34.60;;;;;;;4.26;100.00;99719.63;4935515;29;20486;-77
2021/01/01 05:38:24;;;;;;;49.30;32.13;;;;;;;4.23;100.00;99722.34;4935866;29;20438;-76
2021/01/01 05:41:11;;;;;;;49.13;32.57;;;;;;;4.23;100.00;99725.72;4935832;29;20927;-76
2021/01/01 05:44:12;;;;;;;50.43;33.00;;;;;;;4.24;100.00;99723.97;4936983;29;20843;-77
2021/01/01 05:47:04;;;;;;;49.93;33.40;;;;;;;4.29;100.00;99725.41;4935332;29;20433;-77
2021/01/01 05:49:51;;;;;;;51.20;31.80;;;;;;;4.29;100.00;99730.56;4931094;29;20437;-77
2021/01/01 05:52:38;;;;;;;49.20;32.03;;;;;;;4.32;100.00;99735.56;4937014;29;20460;-77
2021/01/01 05:55:24;;;;;;;46.63;29.93;;;;;;;4.18;100.00;99737.97;4938278;29;21050;-77
2021/01/01 05:58:21;;;;;;;47.77;31.90;;;;;;;4.19;100.00;99741.34;4937270;29;20481;-76
2021/01/01 06:01:10;;;;;;;53.30;33.40;;;;;;;4.21;100.00;99747.25;4934490;29;20450;-77
2021/01/01 06:03:57;;;;;;;52.53;32.50;;;;;;;4.19;100.00;99749.91;4934819;29;20437;-77
2021/01/01 06:06:45;;;;;;;48.23;31.80;;;;;;;4.26;100.00;99755.56;4934218;29;20970;-77
2021/01/01 06:09:33;;;;;;;46.90;29.40;;;;;;;4.22;100.00;99760.03;4931158;29;20445;-77
2021/01/01 06:12:26;;;;;;;46.37;30.20;;;;;;;4.18;100.00;99766.19;4935852;29;20509;-77
2021/01/01 06:15:12;;;;;;;49.70;31.83;;;;;;;4.16;100.00;99762.91;4929887;29;20434;-76
2021/01/01 06:18:06;;;;;;;46.67;29.40;;;;;;;4.18;100.00;99768.78;4934513;29;20947;-77
2021/01/01 06:21:00;;;;;;;41.53;30.60;;;;;;;4.18;100.00;99773.06;4934409;29;20514;-77
2021/01/01 06:23:52;;;;;;;45.83;30.67;;;;;;;4.17;100.00;99774.81;4933207;29;20422;-77
2021/01/01 06:26:43;;;;;;;44.73;27.23;;;;;;;4.13;100.00;99773.31;4930894;29;20868;-77
2021/01/01 06:29:30;;;;;;;46.73;30.17;;;;;;;4.08;100.00;99782.97;4935090;29;20481;-77
2021/01/01 06:32:19;;;;;;;45.17;30.57;;;;;;;4.10;100.00;99787.13;4931052;29;20450;-77
2021/01/01 06:35:15;;;;;;;44.03;29.27;;;;;;;4.08;100.00;99786.38;4935095;29;20454;-77
2021/01/01 06:38:01;;;;;;;44.57;30.20;;;;;;;4.05;100.00;99789.06;4934245;29;20795;-77
2021/01/01 06:40:47;;;;;;;48.13;30.80;;;;;;;4.04;100.00;99789.16;4933769;29;20489;-77
2021/01/01 06:43:54;;;;;;;43.97;28.00;;;;;;;4.07;100.00;99792.41;4935360;29;20438;-77
2021/01/01 06:46:41;;;;;;;39.63;27.70;;;;;;;4.08;100.00;99799.19;4935009;29;20486;-76
2021/01/01 06:49:33;;;;;;;44.23;29.23;;;;;;;4.06;100.00;99800.16;4932274;29;20422;-77
2021/01/01 06:52:20;;;;;;;45.83;29.03;;;;;;;4.04;100.00;99813.09;4933824;29;20461;-77
2021/01/01 06:55:08;;;;;;;46.20;30.50;;;;;;;4.05;100.00;99816.50;4933614;29;20418;-77
2021/01/01 06:57:55;;;;;;;45.83;30.57;;;;;;;4.06;100.00;99816.41;4933812;29;20426;-77
2021/01/01 07:00:55;;;;;;;50.57;31.13;;;;;;;4.09;100.00;99820.56;4929516;29;20442;-76
2021/01/01 07:03:42;;;;;;;44.10;29.73;;;;;;;4.08;100.00;99824.03;4934375;29;20437;-77
2021/01/01 07:06:40;;;;;;;50.50;30.73;;;;;;;4.02;100.00;99826.88;4934045;29;20464;-77
2021/01/01 07:09:36;;;;;;;53.03;31.10;;;;;;;3.95;100.00;99828.91;4934427;29;20437;-77
2021/01/01 07:12:23;;;;;;;50.67;30.70;;;;;;;3.98;100.00;99831.34;4933267;29;20461;-77
2021/01/01 07:15:34;;;;;;;46.80;28.03;;;;;;;3.93;100.00;99828.13;4932689;29;20425;-77
2021/01/01 07:18:21;;;;;;;44.57;27.63;;;;;;;3.87;100.00;99838.72;4933915;29;20426;-77
2021/01/01 07:21:09;;;;;;;37.83;24.93;;;;;;;3.88;100.00;99839.53;4933295;29;20589;-77
2021/01/01 07:23:56;;;;;;;41.53;27.30;;;;;;;3.86;100.00;99843.91;4933920;29;20441;-77
2021/01/01 07:26:43;;;;;;;41.37;28.00;;;;;;;3.80;100.00;99834.78;4932012;29;20823;-77
2021/01/01 07:29:30;;;;;;;39.70;25.50;;;;;;;3.77;100.00;99844.31;4933275;29;20438;-77
2021/01/01 07:32:18;;;;;;;41.33;26.70;;;;;;;3.87;100.00;99845.59;4932923;29;20796;-77
2021/01/01 07:35:08;;;;;;;41.20;26.50;;;;;;;3.80;100.00;99846.75;4933059;29;20417;-77
2021/01/01 07:37:55;;;;;;;46.03;29.03;;;;;;;3.77;100.00;99852.03;4937768;29;20464;-76
2021/01/01 07:40:42;;;;;;;37.93;26.53;;;;;;;3.73;100.00;99851.34;4936871;29;20430;-77
2021/01/01 07:43:30;;;;;;;48.60;30.13;;;;;;;3.66;100.00;99848.22;4936745;29;20449;-77
2021/01/01 07:46:17;;;;;;;40.10;25.63;;;;;;;3.73;100.00;99853.06;4936102;29;20446;-77
2021/01/01 07:49:03;;;;;;;40.80;27.73;;;;;;;3.74;100.00;99859.88;4936297;29;20938;-77
2021/01/01 07:51:50;;;;;;;41.40;26.50;;;;;;;3.82;100.00;99861.16;4938116;29;20457;-77
2021/01/01 07:54:54;;;;;;;40.00;25.80;;;;;;;3.81;100.00;99862.09;4923322;29;20434;-77
2021/01/01 07:57:40;;;;;;;42.37;26.60;;;;;;;3.91;100.00;99865.06;4939148;29;21055;-77
2021/01/01 08:00:30;;;;;;;39.30;27.10;;;;;;;3.92;100.00;99864.16;4937003;29;20428;-76
2021/01/01 08:03:17;;;;;;;38.77;26.00;;;;;;;3.96;100.00;99868.25;4936891;29;20433;-76
2021/01/01 08:06:04;;;;;;;38.43;26.27;;;;;;;3.97;100.00;99869.91;4936962;29;20586;-77
2021/01/01 08:08:51;;;;;;;41.03;28.50;;;;;;;4.08;100.00;99872.81;4936821;29;20477;-76
2021/01/01 08:11:37;;;;;;;46.57;30.63;;;;;;;4.03;100.00;99872.19;4936840;29;20851;-77
2021/01/01 08:14:24;;;;;;;43.10;29.77;;;;;;;4.00;100.00;99878.28;4937331;29;20422;-77
2021/01/01 08:17:21;;;;;;;49.30;33.03;;;;;;;4.04;100.00;99889.28;4936279;29;20942;-75
2021/01/01 08:20:15;;;;;;;52.80;34.13;;;;;;;4.13;100.00;99881.13;4937182;29;20438;-76
2021/01/01 08:23:07;;;;;;;53.73;35.60;;;;;;;4.16;100.00;99883.56;4936634;29;20441;-76
2021/01/01 08:25:55;;;;;;;52.03;35.27;;;;;;;4.15;100.00;99888.78;4936188;29;20847;-76
2021/01/01 08:28:42;;;;;;;49.57;34.57;;;;;;;4.17;100.00;99882.63;4936587;29;20505;-76
2021/01/01 08:31:29;;;;;;;55.10;35.70;;;;;;;4.20;100.00;99890.22;4936797;29;20795;-76
2021/01/01 08:34:17;;;;;;;49.93;33.90;;;;;;;4.29;100.00;99888.97;4936467;29;20576;-76
2021/01/01 08:37:17;;;;;;;47.37;32.60;;;;;;;4.39;100.00;99892.75;4935815;29;20441;-77
2021/01/01 08:40:06;;;;;;;51.10;36.27;;;;;;;4.41;100.00;99884.06;4935850;29;20957;-76
2021/01/01 08:42:54;;;;;;;49.70;36.23;;;;;;;4.49;100.00;99899.13;4935621;29;20457;-77
2021/01/01 08:45:42;;;;;;;51.00;34.60;;;;;;;4.58;100.00;99905.56;4917376;29;20475;-77
2021/01/01 08:48:29;;;;;;;53.67;37.00;;;;;;;4.69;100.00;99903.31;4936543;28;20423;-77
2021/01/01 08:51:31;;;;;;;50.77;35.00;;;;;;;4.79;100.00;99912.22;4935878;29;20461;-77
2021/01/01 08:54:27;;;;;;;55.33;35.03;;;;;;;4.81;100.00;99913.00;4935981;29;20441;-77
2021/01/01 08:57:13;;;;;;;59.20;38.27;;;;;;;4.82;100.00;99909.53;4944057;29;21108;-76
2021/01/01 09:00:00;;;;;;;54.57;36.10;;;;;;;4.89;100.00;99913.44;4935436;29;20466;-77
2021/01/01 09:02:56;;;;;;;45.77;35.57;;;;;;;4.94;100.00;99920.00;4931764;29;20509;-76
2021/01/01 09:05:44;;;;;;;55.17;37.17;;;;;;;5.05;100.00;99919.50;4935347;29;20829;-76
2021/01/01 09:08:32;;;;;;;50.20;37.60;;;;;;;5.08;100.00;99919.34;4936053;29;20430;-77
2021/01/01 09:11:22;;;;;;;55.40;37.67;;;;;;;5.09;100.00;99922.75;4935730;28;20517;-76
2021/01/01 09:14:09;;;;;;;52.10;36.57;;;;;;;5.18;100.00;99928.28;4936029;29;20426;-77
2021/01/01 09:16:55;;;;;;;50.03;36.50;;;;;;;5.29;100.00;99928.56;4935534;29;20851;-75
2021/01/01 09:19:42;;;;;;;48.97;37.03;;;;;;;5.31;100.00;99936.19;4936351;29;20780;-77
2021/01/01 09:22:32;;;;;;;57.83;39.83;;;;;;;5.35;100.00;99932.56;4942977;28;20444;-77
2021/01/01 09:25:21;;;;;;;53.33;38.70;;;;;;;5.33;100.00;99936.94;4915285;29;20454;-77
2021/01/01 09:28:12;;;;;;;60.70;39.10;;;;;;;5.26;100.00;99941.56;4921363;29;20438;-77
2021/01/01 09:30:59;;;;;;;65.13;42.33;;;;;;;5.25;100.00;99939.06;4935419;29;20458;-77
2021/01/01 09:33:59;;;;;;;59.00;39.30;;;;;;;5.45;100.00;99945.78;4934646;29;20437;-77
2021/01/01 09:36:45;;;;;;;49.20;36.10;;;;;;;5.73;100.00;99946.84;4935767;29;20780;-76
2021/01/01 09:39:31;;;;;;;51.50;36.50;;;;;;;6.02;100.00;99941.94;4935048;29;20438;-77
2021/01/01 09:42:24;;;;;;;51.90;34.77;;;;;;;6.30;100.00;99941.31;4935117;29;20457;-76
2021/01/01 09:45:12;;;;;;;54.57;35.03;;;;;;;6.39;100.00;99945.97;4934298;29;20489;-76
2021/01/01 09:48:20;;;;;;;45.97;34.03;;;;;;;6.56;100.00;99946.69;4939822;29;20445;-77
2021/01/01 09:51:27;;;;;;;48.77;35.80;;;;;;;6.75;100.00;99954.25;4936366;29;20819;-77
2021/01/01 09:54:33;;;;;;;51.57;35.33;;;;;;;6.76;100.00;99953.31;4935379;29;20470;-77
2021/01/01 09:57:41;;;;;;;49.70;34.83;;;;;;;6.76;100.00;99957.66;4933790;29;20434;-77
2021/01/01 10:00:48;;;;;;;47.83;34.80;;;;;;;6.65;100.00;99958.25;4939123;28;20449;-77
2021/01/01 10:03:55;;;;;;;49.43;36.50;;;;;;;6.54;100.00;99958.03;4943717;29;20427;-76
2021/01/01 10:07:02;;;;;;;50.17;35.60;;;;;;;6.74;100.00;99962.06;4944426;29;20458;-77
2021/01/01 10:10:10;;;;;;;53.60;35.73;;;;;;;6.89;99.81;99962.03;4934615;29;20453;-76
2021/01/01 10:13:18;;;;;;;51.80;36.47;;;;;;;6.84;99.68;99969.22;4922753;29;20919;-75
2021/01/01 10:16:25;;;;;;;50.40;36.97;;;;;;;6.66;99.48;99964.25;4933686;29;20445;-75
2021/01/01 10:19:32;;;;;;;58.37;40.07;;;;;;;6.47;99.93;99967.00;4933998;29;20879;-76
2021/01/01 10:22:39;;;;;;;56.67;38.20;;;;;;;6.44;100.00;99962.81;4935465;29;20464;-76
2021/01/01 10:25:46;;;;;;;48.70;35.17;;;;;;;6.52;99.25;99972.72;4932956;29;20461;-77
2021/01/01 10:28:54;;;;;;;53.87;37.97;;;;;;;6.42;98.96;99972.41;4935291;28;20470;-77
2021/01/01 10:32:05;;;;;;;63.40;38.20;;;;;;;6.38;100.00;99973.47;4934279;29;20454;-77
2021/01/01 10:35:12;;;;;;;56.37;38.70;;;;;;;6.39;100.00;99972.56;4935219;28;20449;-77
2021/01/01 10:38:18;;;;;;;57.83;39.70;;;;;;;6.39;100.00;99979.47;4935323;29;20442;-77
2021/01/01 10:41:25;;;;;;;56.07;37.77;;;;;;;6.33;100.00;99972.06;4934540;29;20454;-77
2021/01/01 10:44:33;;;;;;;56.93;37.13;;;;;;;6.24;99.07;99968.25;4934717;29;20835;-77
2021/01/01 10:47:40;;;;;;;56.63;38.47;;;;;;;6.17;99.33;99976.38;4934922;29;20430;-77
2021/01/01 10:50:46;;;;;;;56.20;38.07;;;;;;;6.20;98.96;99977.03;4935668;28;20441;-77
2021/01/01 10:53:53;;;;;;;59.47;38.23;;;;;;;6.18;98.56;99978.03;4935942;28;21157;-76
2021/01/01 10:57:00;;;;;;;58.70;37.57;;;;;;;6.22;98.73;99970.06;4933658;29;20433;-77
2021/01/01 11:00:09;;;;;;;49.80;32.90;;;;;;;6.30;97.35;99973.06;4935944;28;20816;-76
2021/01/01 11:03:16;;;;;;;52.30;34.40;;;;;;;6.19;96.22;99969.41;4934205;29;20962;-77
2021/01/01 11:06:22;;;;;;;55.43;37.77;;;;;;;6.22;98.32;99970.06;4934242;29;20461;-77
2021/01/01 11:09:30;;;;;;;55.23;35.40;;;;;;;6.24;98.64;99972.56;4935541;29;20449;-76
2021/01/01 11:12:38;;;;;;;51.80;35.83;;;;;;;6.29;99.30;99973.16;4939229;29;20863;-76
2021/01/01 12:21:18;;;;;;;43.50;30.30;;;;;;;7.25;90.84;99947.97;4919760;29;20816;-77
2021/01/01 12:24:46;;;;;;;46.93;31.30;;;;;;;6.93;91.83;99949.78;4919088;29;20431;-77
2021/01/01 12:27:57;;;;;;;41.60;29.23;;;;;;;6.76;92.39;99947.34;4919372;29;20435;-77
2021/01/01 12:31:06;;;;;;;43.37;29.83;;;;;;;6.54;92.86;99940.81;4919657;29;20462;-78
2021/01/01 12:34:12;;;;;;;43.00;28.93;;;;;;;6.47;93.81;99946.38;4920489;29;20435;-78
2021/01/01 12:37:19;;;;;;;40.93;30.43;;;;;;;6.42;92.17;99945.81;4938820;29;20434;-77
2021/01/01 12:40:28;;;;;;;42.07;29.60;;;;;;;6.58;90.74;99954.34;4937978;29;20434;-77
2021/01/01 12:43:34;;;;;;;41.83;28.33;;;;;;;6.65;91.42;99949.69;4942856;29;21141;-77
2021/01/01 12:46:41;;;;;;;38.97;27.10;;;;;;;6.80;89.80;99956.56;4941895;29;20560;-77
2021/01/01 12:49:48;;;;;;;36.17;26.87;;;;;;;6.66;89.24;99954.75;4941600;29;20446;-77
2021/01/01 12:52:56;;;;;;;42.30;27.73;;;;;;;6.41;91.23;99954.44;4941078;29;20461;-77
2021/01/01 12:56:07;;;;;;;37.63;25.70;;;;;;;6.23;92.31;99958.84;4944689;29;20449;-77
2021/01/01 12:59:14;;;;;;;40.53;26.40;;;;;;;6.27;92.58;99957.75;4943069;29;20997;-79
2021/01/01 13:02:20;;;;;;;38.27;27.00;;;;;;;6.40;91.10;99958.75;4943544;29;20465;-80
2021/01/01 13:05:29;;;;;;;37.63;25.97;;;;;;;6.48;91.64;99953.19;4922087;29;20537;-80
2021/01/01 13:08:36;;;;;;;44.20;29.53;;;;;;;6.46;93.00;99955.03;4923655;29;20447;-80
2021/01/01 13:11:44;;;;;;;40.47;28.63;;;;;;;6.26;93.45;99958.66;4927801;29;20482;-78
2021/01/01 13:14:51;;;;;;;47.83;29.53;;;;;;;6.00;95.59;99964.41;4948461;29;20449;-79
2021/01/01 13:17:57;;;;;;;41.97;30.47;;;;;;;5.78;98.90;99959.47;4950362;28;20437;-78
2021/01/01 13:21:06;;;;;;;38.53;28.67;;;;;;;5.80;100.00;99956.84;4944177;29;20544;-79
2021/01/01 13:24:13;;;;;;;41.80;29.70;;;;;;;5.77;100.00;99973.28;4935264;29;20493;-78
2021/01/01 13:27:25;;;;;;;43.00;29.00;;;;;;;5.70;100.00;99964.22;4939655;29;20469;-77
2021/01/01 13:30:32;;;;;;;42.93;30.80;;;;;;;5.63;100.00;99973.16;4939807;29;20806;-76
2021/01/01 13:33:39;;;;;;;39.00;27.43;;;;;;;5.56;100.00;99969.22;4948664;29;20620;-77
2021/01/01 13:36:52;;;;;;;42.67;29.17;;;;;;;5.54;100.00;99973.63;4959958;29;20437;-79
2021/01/01 13:40:02;;;;;;;37.10;24.60;;;;;;;5.49;100.00;99973.84;4951100;29;20434;-78
2021/01/01 13:43:10;;;;;;;40.80;27.57;;;;;;;5.49;100.00;99973.84;4938947;29;20438;-78
2021/01/01 13:46:22;;;;;;;40.00;26.57;;;;;;;5.48;100.00;99977.31;4941098;29;20458;-79
2021/01/01 13:49:28;;;;;;;41.23;27.10;;;;;;;5.46;100.00;99986.06;4941453;29;21088;-79
2021/01/01 13:52:35;;;;;;;41.43;27.80;;;;;;;5.43;100.00;99979.31;4937769;29;20460;-76
2021/01/01 13:55:42;;;;;;;38.40;25.83;;;;;;;5.42;100.00;99976.81;4935514;29;20442;-78
2021/01/01 13:58:50;;;;;;;35.97;25.60;;;;;;;5.46;100.00;99980.91;4942552;29;20453;-77
2021/01/01 14:01:57;;;;;;;41.53;27.67;;;;;;;5.47;100.00;99985.16;4937140;29;20999;-77
2021/01/01 14:05:05;;;;;;;40.53;25.93;;;;;;;5.42;100.00;99989.69;4932952;29;20812;-76
2021/01/01 14:08:15;;;;;;;38.20;27.00;;;;;;;5.38;100.00;99990.72;4937618;28;20434;-77
2021/01/01 14:11:21;;;;;;;38.03;26.50;;;;;;;5.29;100.00;99990.31;4935090;28;20473;-77
2021/01/01 14:14:30;;;;;;;34.60;24.60;;;;;;;5.28;100.00;99998.91;4935102;28;20944;-76
2021/01/01 14:17:36;;;;;;;38.57;26.20;;;;;;;5.25;100.00;99991.34;4936021;29;20792;-77
2021/01/01 14:20:43;;;;;;;36.67;25.47;;;;;;;5.26;100.00;99998.16;4933800;29;20461;-77
2021/01/01 14:23:50;;;;;;;37.60;27.43;;;;;;;5.28;100.00;99998.91;4936786;29;20445;-76